createdAt,value
2022-10-01T00:03:47.525Z,59.60
2022-10-01T00:08:51.162Z,59.50
2022-10-01T00:13:55.541Z,59.50
2022-10-01T00:18:58.309Z,59.80
2022-10-01T00:24:02.063Z,59.50
2022-10-01T00:29:06.749Z,59.80
2022-10-01T00:34:10.632Z,59.40
2022-10-01T00:39:13.493Z,59.40
2022-10-01T00:44:32.017Z,59.60
2022-10-01T00:49:36.257Z,59.40
2022-10-01T00:54:41.526Z,59.50
2022-10-01T00:59:45.951Z,59.30
2022-10-01T01:04:48.864Z,59.30
2022-10-01T01:09:53.238Z,59.20
2022-10-01T01:15:04.654Z,59.40
2022-10-01T01:20:14.270Z,59.30
2022-10-01T01:25:18.950Z,59.40
2022-10-01T01:30:23.066Z,59.40
2022-10-01T01:35:32.006Z,59.40
2022-10-01T01:40:36.733Z,59.30
2022-10-01T01:45:41.192Z,59.30
2022-10-01T01:50:46.966Z,59.40
2022-10-01T01:55:50.287Z,59.00
2022-10-01T02:00:54.538Z,59.10
2022-10-01T02:06:06.134Z,59.10
2022-10-01T02:11:19.527Z,59.00
2022-10-01T02:16:25.899Z,59.10
2022-10-01T02:21:31.319Z,59.40
2022-10-01T02:26:35.059Z,59.30
2022-10-01T02:31:39.512Z,59.10
2022-10-01T02:36:43.249Z,59.00
2022-10-01T02:41:46.916Z,59.20
2022-10-01T02:46:52.666Z,59.20
2022-10-01T02:51:57.061Z,59.00
2022-10-01T02:57:17.273Z,59.00
2022-10-01T03:02:22.469Z,58.90
2022-10-01T03:07:25.270Z,59.00
2022-10-01T03:12:27.879Z,59.00
2022-10-01T03:17:32.686Z,59.20
2022-10-01T03:22:35.372Z,58.90
2022-10-01T03:27:38.405Z,58.90
2022-10-01T03:32:42.342Z,59.10
2022-10-01T03:37:44.925Z,59.00
2022-10-01T03:42:47.507Z,59.10
2022-10-01T03:47:54.013Z,59.00
2022-10-01T03:52:57.598Z,59.10
2022-10-01T03:58:00.182Z,58.80
2022-10-01T04:03:04.165Z,59.00
2022-10-01T04:08:07.445Z,59.00
2022-10-01T04:13:10.226Z,58.80
2022-10-01T04:18:14.145Z,58.70
2022-10-01T04:23:16.821Z,58.60
2022-10-01T04:28:19.760Z,58.50
2022-10-01T04:33:23.750Z,58.50
2022-10-01T04:38:26.878Z,58.40
2022-10-01T04:43:29.458Z,58.40
2022-10-01T04:48:33.405Z,58.30
2022-10-01T04:53:36.094Z,58.40
2022-10-01T04:58:38.737Z,58.30
2022-10-01T05:03:42.679Z,58.50
2022-10-01T05:08:45.268Z,58.30
2022-10-01T05:13:47.839Z,58.20
2022-10-01T05:18:51.774Z,58.10
2022-10-01T05:23:54.360Z,58.30
2022-10-01T05:28:56.929Z,58.30
2022-10-01T05:34:00.839Z,58.10
2022-10-01T05:39:03.470Z,58.00
2022-10-01T05:44:06.797Z,58.10
2022-10-01T05:49:10.707Z,58.10
2022-10-01T05:54:13.799Z,58.20
2022-10-01T05:59:16.381Z,58.10
2022-10-01T06:04:20.298Z,58.10
2022-10-01T06:09:23.054Z,58.00
2022-10-01T06:14:25.649Z,58.00
2022-10-01T06:19:29.922Z,58.00
2022-10-01T06:24:32.528Z,58.10
2022-10-01T06:29:35.097Z,58.00
2022-10-01T06:34:39.113Z,58.10
2022-10-01T06:39:41.688Z,58.10
2022-10-01T06:44:44.254Z,57.90
2022-10-01T06:49:48.171Z,57.90
2022-10-01T06:54:51.229Z,58.00
2022-10-01T06:59:53.822Z,58.10
2022-10-01T07:04:59.660Z,58.10
2022-10-01T07:10:02.405Z,57.80
2022-10-01T07:15:05.670Z,58.00
2022-10-01T07:20:10.245Z,57.70
2022-10-01T07:25:12.974Z,57.80
2022-10-01T07:30:15.638Z,57.90
2022-10-01T07:35:20.946Z,57.80
2022-10-01T07:40:23.618Z,57.70
2022-10-01T07:45:27.933Z,57.90
2022-10-01T07:50:31.880Z,57.80
2022-10-01T07:55:34.558Z,57.80
2022-10-01T08:00:37.933Z,57.90
2022-10-01T08:05:43.921Z,57.90
2022-10-01T08:10:46.994Z,57.90
2022-10-01T08:15:50.405Z,58.00
2022-10-01T08:20:54.904Z,57.90
2022-10-01T08:26:00.200Z,57.60
2022-10-01T08:31:07.380Z,57.70
2022-10-01T08:36:11.310Z,57.80
2022-10-01T08:41:23.540Z,57.70
2022-10-01T08:46:28.794Z,58.00
2022-10-01T08:51:35.061Z,58.10
2022-10-01T08:56:40.697Z,57.90
2022-10-01T09:01:43.440Z,57.80
2022-10-01T09:06:50.193Z,58.00
2022-10-01T09:11:59.075Z,57.80
2022-10-01T09:17:07.556Z,58.20
2022-10-01T09:22:22.827Z,57.90
2022-10-01T09:27:27.017Z,58.20
2022-10-01T09:32:31.952Z,58.10
2022-10-01T09:37:39.287Z,58.20
2022-10-01T09:42:41.969Z,58.10
2022-10-01T09:47:45.724Z,58.10
2022-10-01T09:52:51.117Z,58.10
2022-10-01T09:57:58.234Z,58.30
2022-10-01T10:03:01.714Z,58.00
2022-10-01T10:08:11.845Z,58.10
2022-10-01T10:13:18.849Z,58.20
2022-10-01T10:18:26.954Z,58.10
2022-10-01T10:23:32.514Z,58.10
2022-10-01T10:28:43.782Z,58.00
2022-10-01T10:33:52.396Z,58.00
2022-10-01T10:38:56.917Z,58.20
2022-10-01T10:44:04.670Z,58.00
2022-10-01T10:49:09.009Z,58.10
2022-10-01T10:54:29.901Z,58.10
2022-10-01T10:59:34.707Z,57.90
2022-10-01T11:04:42.170Z,58.10
2022-10-01T11:09:57.929Z,58.00
2022-10-01T11:15:11.410Z,58.00
2022-10-01T11:20:20.992Z,58.20
2022-10-01T11:25:31.466Z,58.10
2022-10-01T11:30:38.274Z,58.10
2022-10-01T11:35:48.246Z,58.30
2022-10-01T11:40:53.088Z,58.20
2022-10-01T11:46:01.059Z,58.20
2022-10-01T11:51:07.604Z,58.30
2022-10-01T11:56:30.709Z,58.30
2022-10-01T12:01:39.466Z,58.40
2022-10-01T12:06:45.753Z,58.50
2022-10-01T12:11:52.642Z,58.40
2022-10-01T12:16:57.873Z,58.40
2022-10-01T12:22:04.054Z,58.30
2022-10-01T12:27:15.216Z,58.20
2022-10-01T12:32:23.057Z,58.10
2022-10-01T12:37:32.051Z,58.40
2022-10-01T12:42:42.822Z,58.50
2022-10-01T12:47:52.202Z,58.60
2022-10-01T12:53:05.110Z,58.60
2022-10-01T12:58:12.783Z,58.70
2022-10-01T13:03:37.313Z,58.80
2022-10-01T13:08:55.220Z,58.70
2022-10-01T13:13:58.382Z,58.80
2022-10-01T13:19:04.190Z,58.60
2022-10-01T13:24:10.889Z,58.90
2022-10-01T13:29:18.190Z,58.90
2022-10-01T13:34:26.121Z,58.90
2022-10-01T13:39:36.651Z,58.90
2022-10-01T13:44:42.225Z,59.00
2022-10-01T13:49:53.654Z,59.20
2022-10-01T13:54:58.445Z,59.10
2022-10-01T14:00:02.477Z,59.20
2022-10-01T14:05:23.180Z,59.30
2022-10-01T14:10:32.550Z,59.50
2022-10-01T14:15:57.510Z,59.70
2022-10-01T14:21:07.510Z,59.70
2022-10-01T14:26:14.603Z,59.70
2022-10-01T14:31:24.331Z,59.80
2022-10-01T14:36:32.267Z,59.60
2022-10-01T14:41:36.474Z,59.90
2022-10-01T14:46:39.220Z,59.90
2022-10-01T14:51:50.411Z,59.90
2022-10-01T14:56:54.725Z,59.80
2022-10-01T15:01:58.393Z,59.80
2022-10-01T15:07:04.793Z,60.30
2022-10-01T15:12:08.713Z,60.30
2022-10-01T15:17:17.682Z,60.20
2022-10-01T15:22:21.864Z,60.20
2022-10-01T15:27:26.085Z,60.30
2022-10-01T15:32:29.260Z,60.30
2022-10-01T15:37:32.809Z,60.20
2022-10-01T15:42:37.385Z,60.50
2022-10-01T15:47:42.460Z,60.60
2022-10-01T15:52:53.154Z,60.60
2022-10-01T15:57:58.242Z,60.80
2022-10-01T16:03:01.767Z,60.60
2022-10-01T16:08:04.379Z,60.80
2022-10-01T16:13:30.917Z,60.80
2022-10-01T16:18:35.183Z,61.10
2022-10-01T16:23:44.737Z,61.00
2022-10-01T16:28:48.756Z,60.90
2022-10-01T16:33:51.372Z,60.90
2022-10-01T16:38:53.965Z,61.00
2022-10-01T16:43:59.057Z,61.10
2022-10-01T16:49:01.837Z,61.10
2022-10-01T16:54:04.978Z,61.40
2022-10-01T16:59:09.637Z,61.70
2022-10-01T17:04:14.189Z,61.50
2022-10-01T17:09:16.901Z,61.80
2022-10-01T17:14:22.031Z,61.70
2022-10-01T17:19:24.853Z,61.90
2022-10-01T17:24:27.427Z,62.00
2022-10-01T17:29:33.314Z,61.90
2022-10-01T17:34:36.082Z,61.80
2022-10-01T17:39:39.322Z,62.20
2022-10-01T17:44:43.254Z,62.40
2022-10-01T17:49:45.855Z,62.10
2022-10-01T17:54:48.443Z,62.30
2022-10-01T17:59:52.677Z,62.30
2022-10-01T18:04:55.305Z,62.40
2022-10-01T18:09:57.897Z,62.20
2022-10-01T18:15:02.058Z,62.10
2022-10-01T18:20:05.191Z,61.90
2022-10-01T18:25:08.020Z,62.30
2022-10-01T18:30:12.254Z,62.40
2022-10-01T18:35:27.858Z,62.00
2022-10-01T18:40:33.055Z,62.10
2022-10-01T18:45:45.386Z,62.00
2022-10-01T18:50:50.154Z,62.00
2022-10-01T18:56:03.984Z,62.20
2022-10-01T19:01:14.923Z,62.50
2022-10-01T19:06:21.571Z,62.10
2022-10-01T19:11:26.594Z,62.20
2022-10-01T19:16:36.785Z,62.30
2022-10-01T19:21:45.072Z,62.00
2022-10-01T19:26:50.351Z,62.20
2022-10-01T19:31:56.037Z,62.40
2022-10-01T19:37:01.648Z,62.20
2022-10-01T19:42:06.535Z,62.30
2022-10-01T19:47:20.672Z,62.50
2022-10-01T19:52:24.358Z,62.40
2022-10-01T19:57:28.045Z,62.50
2022-10-01T20:02:35.222Z,62.40
2022-10-01T20:07:42.154Z,62.30
2022-10-01T20:12:47.774Z,62.40
2022-10-01T20:17:56.873Z,62.20
2022-10-01T20:23:06.501Z,62.40
2022-10-01T20:28:16.673Z,62.20
2022-10-01T20:33:26.538Z,62.40
2022-10-01T20:38:31.413Z,62.20
2022-10-01T20:43:35.417Z,62.20
2022-10-01T20:48:42.578Z,62.40
2022-10-01T20:53:47.231Z,62.40
2022-10-01T20:58:53.515Z,62.30
2022-10-01T21:04:01.793Z,62.40
2022-10-01T21:09:11.278Z,62.20
2022-10-01T21:14:16.186Z,62.50
2022-10-01T21:19:26.483Z,62.20
2022-10-01T21:24:34.716Z,62.30
2022-10-01T21:29:50.210Z,62.50
2022-10-01T21:35:02.033Z,62.10
2022-10-01T21:40:13.493Z,62.10
2022-10-01T21:45:20.645Z,62.50
2022-10-01T21:50:35.285Z,62.70
2022-10-01T21:55:48.442Z,62.40
2022-10-01T22:00:54.993Z,62.70
2022-10-01T22:06:04.049Z,62.60
2022-10-01T22:11:09.978Z,62.60
2022-10-01T22:16:15.182Z,62.80
2022-10-01T22:21:23.836Z,62.80
2022-10-01T22:26:28.531Z,62.70
2022-10-01T22:31:32.331Z,62.90
2022-10-01T22:36:39.923Z,62.90
2022-10-01T22:41:44.306Z,62.80
2022-10-01T22:46:57.381Z,62.80
2022-10-01T22:52:07.653Z,62.90
2022-10-01T22:57:18.087Z,62.90
2022-10-01T23:02:25.439Z,62.90
2022-10-01T23:07:33.558Z,62.70
2022-10-01T23:12:41.899Z,62.90
2022-10-01T23:17:47.510Z,62.80
2022-10-01T23:23:01.146Z,62.90
2022-10-01T23:28:09.305Z,62.90
2022-10-01T23:33:19.826Z,63.00
2022-10-01T23:38:31.592Z,62.30
2022-10-01T23:43:38.317Z,62.80
2022-10-01T23:48:43.716Z,63.10
2022-10-01T23:53:51.136Z,62.60
2022-10-01T23:58:56.355Z,63.00
